Date,TemperatureHighF,TemperatureAvgF,TemperatureLowF,DewpointHighF,DewpointAvgF,DewpointLowF,HumidityHigh,HumidityAvg,HumidityLow,PressureMaxIn,PressureMinIn,WindSpeedMaxMPH,WindSpeedAvgMPH,GustSpeedMaxMPH,PrecipitationSumIn
2014-1-1,1,-7,-20,-8,-14,-28,74,69,64,0.00,40.00,4,2,8,0.00
2014-1-2,6,-8,-24,-5,-16,-32,74,68,56,0.00,40.00,5,2,10,0.00
2014-1-3,16,2,-26,10,-7,-35,77,67,57,0.00,40.00,9,6,23,0.00
2014-1-4,20,10,-4,18,3,-100,90,75,59,0.00,40.00,10,5,21,0.00
2014-1-5,-5,-12,-20,-13,-22,-29,71,60,46,0.00,40.00,8,4,14,0.00
2014-1-6,-16,-22,-30,-29,-33,-41,61,55,47,0.00,40.00,8,6,17,0.00
2014-1-7,-2,-16,-26,-15,-26,-35,67,60,51,0.00,40.00,8,5,18,0.00
2014-1-8,6,-9,-27,-11,-20,-36,66,58,41,0.00,40.00,6,3,11,0.00
2014-1-9,15,-1,-27,11,-8,-36,85,71,54,0.00,40.00,6,4,16,0.00
2014-1-10,25,21,14,24,19,11,94,91,86,0.00,40.00,7,4,16,0.00
2014-1-11,28,25,23,26,21,-100,94,90,88,0.00,40.00,8,4,15,0.00
2014-1-12,36,29,22,28,24,20,93,82,66,0.00,40.00,8,5,19,0.13
2014-1-13,29,26,21,26,19,12,94,75,62,0.00,40.00,7,4,16,0.01
2014-1-14,21,16,10,14,10,3,82,79,70,0.00,40.00,9,6,19,0.00
2014-1-15,12,7,4,4,-1,-5,80,70,50,0.00,40.00,7,6,18,0.00
2014-1-16,25,14,7,22,10,1,90,83,75,0.00,40.00,9,5,24,0.00
2014-1-17,14,10,-3,11,5,-8,86,79,73,0.00,40.00,9,6,18,0.00
2014-1-18,24,13,-12,11,2,-100,81,67,55,0.00,40.00,7,4,14,0.10
2014-1-19,27,20,12,22,16,6,88,83,75,0.00,40.00,8,5,19,0.01
2014-1-20,11,3,-6,6,-5,-13,83,70,59,0.00,40.00,9,6,18,0.00
2014-1-21,5,-4,-13,-9,-15,-20,71,61,43,0.00,40.00,7,4,16,0.00
2014-1-22,-1,-2,-4,-8,-10,-13,73,68,57,0.00,40.00,12,7,26,0.00
2014-1-23,2,-6,-12,-11,-15,-21,73,64,52,0.00,40.00,9,6,21,0.00
2014-1-24,23,10,-10,20,4,-18,90,77,60,0.00,40.00,11,7,26,0.00
2014-1-25,15,0,-9,7,-11,-100,80,62,49,0.00,40.00,12,7,26,0.00
2014-1-26,5,-1,-6,-3,-8,-14,76,70,62,0.00,40.00,12,5,23,0.00
2014-1-27,-5,-12,-20,-13,-23,-30,69,57,48,0.00,40.00,10,7,21,0.00
2014-1-28,-3,-12,-23,-17,-23,-31,63,57,47,0.00,40.00,10,7,23,0.00
2014-1-29,20,6,-11,6,-8,-19,67,52,37,0.00,40.00,10,7,23,0.00
2014-1-30,21,13,-4,15,5,-12,88,72,57,0.00,40.00,8,5,17,0.00
2014-1-31,7,-6,-19,-9,-16,-27,68,61,47,0.00,40.00,8,4,18,0.00
2014-2-1,14,1,-15,3,-8,-100,80,69,60,0.00,40.00,6,2,12,0.00
2014-2-2,13,-1,-18,-2,-11,-25,75,63,40,0.00,40.00,7,3,13,0.00
2014-2-3,20,1,-22,6,-8,-31,78,65,52,0.00,40.00,6,2,13,0.00
2014-2-4,22,0,-18,1,-11,-26,73,59,37,0.00,40.00,7,2,11,0.05
2014-2-5,6,2,-6,-3,-6,-13,77,70,61,0.00,40.00,6,5,16,0.01
2014-2-6,6,-4,-13,-12,-15,-20,71,59,41,0.00,40.00,10,6,18,0.00
2014-2-7,13,1,-9,-8,-13,-16,72,55,33,0.00,40.00,11,6,21,0.00
2014-2-8,18,1,-22,2,-10,-31,75,61,43,0.00,40.00,6,2,12,0.00
2014-2-9,7,-1,-9,-5,-12,-18,74,61,42,0.00,40.00,8,4,14,0.00
2014-2-10,8,-6,-20,-13,-18,-29,70,56,37,0.00,40.00,6,3,13,0.00
2014-2-11,17,1,-26,-5,-15,-35,63,47,31,0.00,40.00,8,4,19,0.00
2014-2-12,27,14,7,8,4,0,82,66,42,0.00,40.00,8,5,15,0.02
2014-2-13,21,15,9,17,11,5,87,82,74,0.00,40.00,8,4,20,0.02
2014-2-14,14,4,-13,1,-4,-20,79,69,54,0.00,40.00,8,4,15,0.00
2014-2-15,24,9,-18,13,-2,-100,86,67,35,0.00,40.00,6,3,11,0.03
2014-2-16,24,10,-3,6,1,-9,80,68,41,0.00,40.00,7,3,15,0.25
2014-2-17,26,18,12,19,13,3,90,79,65,0.00,40.00,8,4,22,0.02
2014-2-18,42,28,17,23,19,14,91,73,46,0.00,40.00,7,4,16,0.28
2014-2-19,44,30,13,24,16,10,89,61,29,0.00,40.00,9,4,17,0.01
2014-2-20,38,32,27,31,26,17,98,77,49,0.00,40.00,8,5,18,0.00
2014-2-21,29,17,7,28,13,1,97,83,73,0.00,40.00,11,8,23,0.00
2014-2-22,15,7,3,3,-2,-100,77,68,58,0.00,40.00,11,8,20,0.00
2014-2-23,18,7,-3,1,-3,-9,75,62,47,0.00,40.00,11,8,23,0.00
2014-2-24,18,7,-1,0,-5,-9,71,58,42,0.00,40.00,10,6,20,0.00
2014-2-25,8,-1,-11,-7,-14,-19,70,55,39,0.00,40.00,10,6,21,0.00
2014-2-26,10,-3,-13,0,-14,-23,77,58,44,0.00,40.00,14,8,28,0.00
2014-2-27,3,-8,-24,-18,-25,-33,64,46,26,0.00,40.00,12,6,25,0.00
2014-2-28,10,-2,-27,-2,-15,-37,75,56,29,0.00,40.00,7,3,16,0.00
2014-3-1,5,-4,-11,-8,-18,-100,73,53,34,0.00,40.00,8,5,16,0.00
2014-3-2,9,-8,-20,-15,-26,-34,58,40,25,0.00,40.00,9,5,16,0.00
2014-3-3,15,0,-28,1,-15,-38,78,52,26,0.00,40.00,6,4,12,0.00
2014-3-4,19,6,-10,4,-3,-17,78,66,47,0.00,40.00,5,2,10,0.09
2014-3-5,28,9,-14,-3,-9,-21,74,49,21,0.00,40.00,5,2,10,0.15
2014-3-6,30,18,3,15,6,-10,73,59,47,0.00,40.00,10,6,22,0.01
2014-3-7,29,25,19,26,20,14,90,83,67,0.00,40.00,10,6,19,0.00
2014-3-8,29,19,9,14,8,-100,85,65,41,0.00,40.00,7,4,13,0.12
2014-3-9,42,29,12,27,18,3,77,63,50,0.00,40.00,10,6,18,0.01
2014-3-10,57,43,27,34,25,20,91,55,25,0.00,40.00,10,6,24,0.00
2014-3-11,43,36,27,26,22,15,70,57,43,0.00,40.00,10,6,21,0.00
2014-3-12,25,12,-2,20,0,-9,85,62,32,0.00,40.00,9,5,19,0.00
2014-3-13,42,26,-2,28,14,-9,76,59,48,0.00,40.00,9,6,20,0.00
2014-3-14,39,33,24,33,27,17,95,80,61,0.00,40.00,11,7,24,0.00
2014-3-15,23,17,3,14,4,-100,81,58,40,0.00,40.00,9,6,20,0.00
2014-3-16,28,13,-12,-3,-8,-21,73,43,20,0.00,40.00,6,3,12,0.00
2014-3-17,25,18,14,17,7,-100,82,64,41,0.00,40.00,6,4,15,0.03
2014-3-18,35,28,21,28,24,16,94,84,70,0.00,40.00,6,4,10,0.25
2014-3-19,30,28,25,29,25,21,96,89,78,0.00,40.00,8,4,17,0.04
2014-3-20,42,29,19,22,17,-100,87,67,34,0.00,40.00,5,3,12,0.20
2014-3-21,38,26,14,32,21,-100,97,86,54,0.00,40.00,8,3,15,0.10
2014-3-22,28,14,3,27,5,-100,95,70,53,0.00,40.00,12,7,26,0.04
2014-3-23,22,8,-12,-1,-5,-20,78,56,34,0.00,40.00,8,4,15,0.03
2014-3-24,27,21,14,9,4,1,58,47,35,0.00,40.00,10,7,23,0.01
2014-3-25,19,10,0,8,-4,-9,80,53,34,0.00,40.00,10,7,22,0.00
2014-3-26,30,14,-12,14,-1,-20,71,53,39,0.00,40.00,9,4,17,0.00
2014-3-27,37,32,25,35,27,15,97,84,58,0.00,40.00,7,4,17,0.12
2014-3-28,39,28,19,24,20,16,94,72,50,0.00,40.00,9,4,20,0.26
2014-3-29,46,28,15,22,16,-100,90,68,33,0.00,40.00,5,2,11,0.26
2014-3-30,53,40,30,30,26,20,80,60,41,0.00,40.00,11,5,22,0.00
2014-3-31,49,44,38,36,33,29,76,66,57,0.00,40.00,6,4,14,0.02
2014-4-1,44,28,19,35,19,-100,90,73,60,0.00,40.00,11,8,22,0.01
2014-4-2,48,28,7,14,12,3,83,54,24,0.00,40.00,6,3,13,0.01
2014-4-3,39,31,26,27,17,9,94,59,30,0.00,40.00,9,6,17,0.01
2014-4-4,30,27,24,28,24,22,94,91,84,0.00,40.00,11,7,26,0.00
2014-4-5,47,28,1,28,14,-100,91,62,32,0.00,40.00,9,4,18,0.38
2014-4-6,57,43,29,32,28,24,82,58,36,0.00,40.00,8,4,15,0.03
2014-4-7,59,36,22,35,28,20,95,78,34,0.00,40.00,8,2,20,0.00
2014-4-8,47,37,25,29,25,20,96,65,37,0.00,40.00,9,4,20,0.00
2014-4-9,56,41,24,34,24,18,80,52,30,0.00,40.00,13,6,27,0.00
2014-4-10,54,48,29,39,23,14,73,41,21,0.00,40.00,12,8,30,0.00
2014-4-11,57,40,25,35,26,19,82,60,27,0.00,40.00,9,4,19,0.00
2014-4-12,43,38,33,38,32,-100,98,83,64,0.00,40.00,8,4,16,0.36
2014-4-13,40,36,31,36,33,24,100,88,74,0.00,40.00,11,5,21,0.04
2014-4-14,30,26,23,23,13,3,86,61,34,0.00,40.00,14,11,27,0.00
2014-4-15,32,22,13,12,5,-3,83,55,23,0.00,40.00,8,4,17,0.00
2014-4-16,29,23,15,28,11,-100,97,79,48,0.00,40.00,8,4,17,0.00
2014-4-17,34,32,30,32,30,28,98,95,89,0.00,40.00,7,4,13,0.35
2014-4-18,50,33,12,26,18,9,97,62,23,0.00,40.00,5,2,11,0.21
2014-4-19,54,42,33,42,28,-100,85,62,39,0.00,40.00,8,5,21,0.06
2014-4-20,70,54,35,45,36,27,97,58,22,0.00,40.00,7,3,15,0.02
2014-4-21,67,47,32,53,35,27,99,68,23,0.00,40.00,11,5,25,0.00
2014-4-22,48,39,27,27,24,22,82,57,37,0.00,40.00,11,6,20,0.00
2014-4-23,56,41,22,29,23,20,93,56,26,0.00,40.00,5,2,17,0.00
2014-4-24,42,35,34,36,33,29,99,93,64,0.00,40.00,7,6,17,0.68
2014-4-25,42,37,32,37,34,31,99,90,68,0.00,40.00,10,5,19,0.25
2014-4-26,47,36,30,30,29,27,97,78,47,0.00,40.00,8,6,16,0.01
2014-4-28,40,38,36,35,33,30,87,83,74,0.00,40.00,7,4,16,0.28
2014-4-29,38,34,32,33,32,27,99,90,69,0.00,40.00,9,7,23,0.57
2014-4-30,40,36,32,39,35,32,99,97,88,0.00,40.00,6,4,10,0.42
2014-5-1,42,37,32,41,36,32,99,98,95,0.00,40.00,7,5,17,0.34
2014-5-2,54,44,37,39,37,31,99,79,41,0.00,40.00,7,4,14,0.01
2014-5-3,52,44,38,40,31,-100,94,66,35,0.00,40.00,12,7,22,0.06
2014-5-4,56,43,30,28,26,23,86,55,29,0.00,40.00,8,5,15,0.03
2014-5-5,58,45,37,40,35,26,97,71,41,0.00,40.00,5,3,10,0.17
2014-5-6,62,49,33,37,35,30,98,62,35,0.00,40.00,10,4,19,0.01
2014-5-13,51,45,41,41,38,35,81,76,63,0.00,40.00,7,4,21,0.43
2014-5-14,53,44,33,35,29,25,95,61,34,0.00,40.00,8,5,18,0.02
2014-5-15,43,38,33,30,27,25,83,65,48,0.00,40.00,10,6,20,0.00
2014-5-16,49,40,31,30,25,19,89,59,31,0.00,40.00,8,3,18,0.00
2014-5-17,61,46,28,32,24,-100,93,50,22,0.00,40.00,8,3,23,0.00
2014-5-18,71,57,37,36,31,27,76,41,23,0.00,40.00,9,5,20,0.00
2014-5-19,63,51,42,50,38,-100,99,70,37,0.00,40.00,8,4,19,0.51
2014-5-20,74,57,48,56,48,-100,99,79,39,0.00,40.00,7,4,16,1.15
2014-5-21,62,56,51,51,46,44,98,69,54,0.00,40.00,8,5,17,0.01
2014-5-22,64,53,42,44,41,-100,88,67,43,0.00,40.00,8,5,16,0.00
2014-5-23,75,57,34,45,39,34,98,60,27,0.00,40.00,6,2,12,0.00
2014-5-24,82,64,41,48,42,-100,96,53,24,0.00,40.00,6,4,14,0.00
2014-5-25,81,69,48,52,46,42,84,46,27,0.00,40.00,8,4,17,0.00
2014-5-26,85,71,61,64,60,53,96,69,38,0.00,40.00,8,3,16,0.00
2014-5-27,69,62,52,62,52,42,95,70,56,0.00,40.00,5,4,13,0.00
2014-5-28,77,62,49,47,42,37,84,51,27,0.00,40.00,8,4,18,0.00
2014-5-29,86,64,41,53,47,40,98,62,23,0.00,40.00,5,2,11,0.00
2014-5-30,87,67,46,58,50,45,97,62,25,0.00,40.00,6,2,13,0.00
2014-5-31,83,72,59,67,54,-100,78,56,41,0.00,40.00,7,4,15,0.09
2014-6-1,79,68,63,66,64,61,98,89,65,0.00,40.00,7,4,15,0.84
2014-6-2,74,68,61,65,61,54,95,79,67,0.00,40.00,9,6,23,0.85
2014-6-3,74,61,50,54,50,47,96,72,42,0.00,40.00,9,6,22,0.05
2014-6-4,77,62,45,54,47,41,98,64,33,0.00,40.00,8,3,16,0.01
2014-6-5,77,62,43,58,51,42,96,71,46,0.00,40.00,8,3,17,0.04
2014-6-6,80,65,57,63,58,55,97,81,43,0.00,40.00,5,3,15,0.44
2014-6-7,59,52,45,58,50,-100,98,95,84,0.00,40.00,8,3,19,0.82
2014-6-8,70,55,37,50,41,36,98,66,31,0.00,40.00,6,2,13,0.04
2014-6-9,69,56,44,52,47,42,94,75,49,0.00,40.00,4,2,9,0.00
2014-6-10,76,62,41,51,46,40,98,62,34,0.00,40.00,5,2,10,0.00
2014-6-11,79,63,42,54,50,41,97,66,39,0.00,40.00,4,2,10,0.00
2014-6-12,62,55,46,57,50,44,96,85,68,0.00,40.00,11,6,27,0.41
2014-6-13,71,55,41,45,40,31,95,63,24,0.00,40.00,9,5,19,0.07
2014-6-14,66,55,43,51,44,-100,94,70,57,0.00,40.00,6,3,16,0.00
2014-6-15,73,60,51,64,54,50,97,81,52,0.00,40.00,10,5,23,0.92
2014-6-16,82,70,56,58,55,52,93,63,36,0.00,40.00,11,5,32,0.18
2014-6-17,84,71,56,61,57,54,96,63,43,0.00,40.00,6,3,16,0.00
2014-6-18,77,68,63,60,57,54,80,68,51,0.00,40.00,9,5,18,0.00
2014-6-19,74,65,58,62,58,54,88,78,63,0.00,40.00,10,5,24,0.00
2014-6-20,77,64,57,65,60,56,98,87,63,0.00,40.00,6,3,14,0.05
2014-6-21,74,65,56,65,59,-100,98,83,65,0.00,40.00,7,4,15,0.01
2014-6-22,84,67,50,64,57,49,98,76,43,0.00,40.00,6,2,12,0.00
2014-6-23,80,68,63,67,64,59,98,87,56,0.00,40.00,10,2,20,0.66
2014-6-24,70,58,43,65,55,42,98,90,72,0.00,40.00,8,4,16,0.55
2014-6-25,65,55,44,58,50,43,98,87,67,0.00,40.00,5,4,11,0.28
2014-6-26,76,61,44,61,54,43,97,79,56,0.00,40.00,4,2,11,0.01
2014-6-27,80,67,60,68,62,58,97,86,66,0.00,40.00,6,4,19,0.95
2014-6-28,86,74,68,71,66,-100,97,79,58,0.00,40.00,8,5,20,0.95
2014-6-29,81,72,64,64,62,55,97,73,41,0.00,40.00,12,7,26,0.25
2014-6-30,83,72,62,65,57,50,95,64,32,0.00,40.00,13,7,29,0.01
2014-7-1,75,64,56,64,58,53,93,82,60,0.00,40.00,8,5,18,0.21
2014-7-2,69,57,48,54,46,40,97,72,35,0.00,40.00,8,5,18,0.15
2014-7-3,72,58,43,51,44,40,97,67,33,0.00,40.00,7,2,15,0.00
2014-7-4,77,62,41,53,47,40,97,64,36,0.00,40.00,8,3,20,0.00
2014-7-5,80,70,60,64,55,-100,81,62,50,0.00,40.00,9,6,22,0.00
2014-7-6,84,71,65,69,65,62,96,82,56,0.00,40.00,9,6,21,0.19
2014-7-7,79,68,57,63,59,55,96,75,45,0.00,40.00,8,4,19,0.68
2014-7-8,67,60,55,58,55,51,98,84,66,0.00,40.00,8,4,19,0.80
2014-7-9,69,59,50,52,50,47,97,75,49,0.00,40.00,7,4,14,0.22
2014-7-10,79,63,44,60,52,43,97,71,43,0.00,40.00,6,2,13,0.00
2014-7-11,74,66,61,64,62,59,97,86,69,0.00,40.00,9,4,21,0.38
2014-7-12,79,68,63,67,64,62,97,84,60,0.00,40.00,4,3,9,0.06
2014-7-13,71,63,55,61,52,45,97,70,43,0.00,40.00,8,4,19,0.00
2014-7-14,61,55,52,52,50,47,96,85,64,0.00,40.00,8,4,17,0.15
2014-7-15,67,56,50,52,49,46,97,80,46,0.00,40.00,9,5,21,0.15
2014-7-16,73,57,39,52,45,38,97,69,38,0.00,40.00,6,2,13,0.02
2014-7-17,75,62,43,55,50,42,96,69,42,0.00,40.00,6,3,15,0.00
2014-7-18,75,64,53,60,55,51,96,75,48,0.00,40.00,8,3,20,0.00
2014-7-19,74,68,62,62,58,56,83,72,64,0.00,40.00,9,5,22,0.00
2014-7-20,79,70,63,67,63,59,88,78,64,0.00,40.00,9,4,18,0.00
2014-7-21,87,78,67,72,68,64,89,74,58,0.00,40.00,8,4,15,0.00
2014-7-22,76,70,56,72,64,55,97,80,62,0.00,40.00,10,6,23,0.34
2014-7-23,72,60,48,59,52,47,98,78,43,0.00,40.00,7,2,15,0.32
2014-7-24,77,62,46,58,52,45,98,73,44,0.00,40.00,6,2,14,0.00
2014-7-25,72,65,58,65,61,55,95,86,73,0.00,40.00,7,3,14,0.00
2014-7-26,85,72,66,68,59,50,97,68,30,0.00,40.00,7,4,16,0.00
2014-7-27,65,59,51,60,56,50,97,92,74,0.00,40.00,8,4,16,0.84
2014-7-28,71,60,45,56,52,44,98,77,50,0.00,40.00,8,4,18,0.10
2014-7-29,73,59,52,59,55,51,98,88,56,0.00,40.00,8,3,25,0.96
2014-7-30,74,61,52,62,55,51,98,83,51,0.00,40.00,7,3,18,0.21
2014-7-31,78,62,47,60,51,46,98,76,40,0.00,40.00,6,2,14,0.15
2014-8-1,77,64,48,59,53,47,97,72,41,0.00,40.00,5,2,11,0.00
2014-8-2,82,66,51,64,57,50,97,78,51,0.00,40.00,5,2,12,0.00
2014-8-3,79,66,52,65,60,51,97,82,54,0.00,40.00,5,2,12,0.02
2014-8-4,75,65,58,67,60,57,97,88,66,0.00,40.00,6,2,12,0.42
2014-8-5,75,64,52,61,56,51,97,78,47,0.00,40.00,6,2,12,0.40
2014-8-6,76,64,50,60,56,49,97,77,56,0.00,40.00,6,3,12,0.00
2014-8-7,81,74,60,61,56,52,94,55,36,0.00,40.00,5,2,12,0.00
2014-8-8,82,67,51,59,53,48,97,67,32,0.00,40.00,5,2,11,0.00
2014-8-9,80,66,49,60,53,48,96,70,40,0.00,40.00,5,1,11,0.00
2014-8-10,82,67,53,62,57,52,96,72,41,0.00,40.00,4,2,9,0.00
2014-8-11,67,61,56,61,59,54,97,92,78,0.00,40.00,9,4,18,0.44
2014-8-12,73,62,53,56,52,49,97,73,45,0.00,40.00,9,5,20,0.07
2014-8-13,70,62,48,59,53,46,97,76,43,0.00,40.00,8,4,17,0.00
2014-8-14,73,56,38,52,44,37,97,71,33,0.00,40.00,4,1,9,0.00
2014-8-15,80,62,41,63,54,40,96,77,54,0.00,40.00,6,3,14,0.00
2014-8-16,73,66,56,69,63,54,97,90,65,0.00,40.00,6,3,14,0.24
2014-8-17,73,59,49,59,54,48,98,86,57,0.00,40.00,6,3,10,0.05
2014-8-18,73,64,59,69,62,58,97,95,85,0.00,40.00,4,2,10,0.31
2014-8-19,67,63,59,62,60,58,98,91,81,0.00,40.00,5,3,10,0.19
2014-8-20,68,62,57,62,59,56,98,89,76,0.00,40.00,4,2,9,0.01
2014-8-21,74,65,53,67,62,52,98,90,77,0.00,40.00,5,3,12,0.00
2014-8-22,70,66,62,68,65,61,98,96,92,0.00,40.00,4,3,8,0.00
2014-8-23,80,69,61,70,65,60,98,86,70,0.00,40.00,5,3,11,0.00
2014-8-24,81,73,66,70,68,63,97,84,65,0.00,40.00,6,4,20,0.00
2014-8-25,83,73,63,72,64,55,97,78,45,0.00,40.00,9,5,22,0.07
2014-8-26,69,60,52,54,50,47,96,73,49,0.00,40.00,7,4,15,0.00
2014-8-27,70,58,48,54,50,47,96,78,47,0.00,40.00,5,2,13,0.01
2014-8-28,73,60,42,60,51,41,97,75,50,0.00,40.00,4,2,12,0.00
2014-8-29,67,62,58,66,61,57,97,95,88,0.00,40.00,4,3,12,1.19
2014-8-30,64,60,57,62,58,56,98,92,81,0.00,40.00,7,3,14,1.37
2014-8-31,77,62,50,67,57,49,98,87,63,0.00,40.00,9,3,22,0.05
2014-9-1,72,64,52,64,60,51,97,86,58,0.00,40.00,7,4,19,1.57
2014-9-2,74,62,49,56,51,47,97,71,38,0.00,40.00,7,4,15,0.01
2014-9-3,71,61,50,61,56,49,97,85,63,0.00,40.00,9,4,26,1.02
2014-9-4,73,66,58,70,64,57,97,92,81,0.00,40.00,10,4,22,1.90
2014-9-5,71,59,50,68,53,48,94,81,66,0.00,40.00,8,4,17,0.02
2014-9-6,69,56,46,51,46,42,97,72,37,0.00,40.00,7,4,14,0.00
2014-9-7,75,61,48,52,48,42,95,69,31,0.00,40.00,9,4,19,0.00
2014-9-8,68,59,53,57,53,50,92,80,57,0.00,40.00,9,4,22,0.04
2014-9-9,76,64,51,66,60,50,97,85,68,0.00,40.00,7,2,12,0.20
2014-9-10,59,46,39,58,45,37,97,95,91,0.00,40.00,14,9,33,1.87
2014-9-11,50,43,33,38,35,32,97,74,51,0.00,40.00,9,5,17,0.01
2014-9-12,49,40,32,40,35,31,97,83,57,0.00,40.00,4,2,11,0.11
2014-9-13,55,44,34,41,36,32,98,75,46,0.00,40.00,6,3,13,0.11
2014-9-14,61,49,38,46,40,36,94,73,44,0.00,40.00,10,5,22,0.00
2014-9-15,57,46,35,45,37,34,97,76,43,0.00,40.00,8,4,17,0.00
2014-9-16,66,50,35,43,39,34,97,70,39,0.00,40.00,9,4,18,0.00
2014-9-17,69,52,38,51,44,37,97,78,45,0.00,40.00,8,4,17,0.00
2014-9-18,58,48,41,50,44,39,97,89,75,0.00,40.00,5,3,10,0.00
2014-9-19,66,58,48,58,52,47,97,82,64,0.00,40.00,12,6,25,0.00
2014-9-20,69,63,52,64,56,48,97,80,54,0.00,40.00,8,5,19,0.16
2014-9-21,56,49,38,51,45,37,98,87,59,0.00,40.00,9,4,18,0.35
2014-9-22,68,49,36,51,42,35,98,77,51,0.00,40.00,7,3,14,0.01
2014-9-23,75,57,38,53,48,37,98,76,41,0.00,40.00,7,2,14,0.00
2014-9-24,68,58,50,53,50,48,93,75,49,0.00,40.00,7,4,17,0.03
2014-9-25,73,62,54,60,54,49,94,76,60,0.00,40.00,4,2,12,0.03
2014-9-26,78,61,45,54,49,44,98,71,35,0.00,40.00,5,2,12,0.00
2014-9-27,79,64,52,60,55,50,96,74,49,0.00,40.00,8,3,17,0.00
2014-9-28,79,64,50,60,55,49,98,77,46,0.00,40.00,7,2,14,0.00
2014-9-29,57,44,39,54,41,36,98,90,71,0.00,40.00,9,7,20,0.09
2014-9-30,61,46,37,43,39,36,97,81,48,0.00,40.00,7,4,15,0.01
2014-10-1,54,48,44,53,46,42,98,94,79,0.00,40.00,5,4,15,0.42
2014-10-2,59,55,52,55,53,51,98,95,82,0.00,40.00,5,2,12,0.25
2014-10-3,51,42,33,50,41,32,98,91,87,0.00,40.00,8,6,20,0.57
2014-10-4,44,38,33,38,34,30,98,86,68,0.00,40.00,9,7,21,0.55
2014-10-5,48,38,34,31,28,25,88,69,42,0.00,40.00,8,5,18,0.01
2014-10-6,53,42,31,40,31,22,95,68,32,0.00,40.00,11,5,22,0.00
2014-10-7,55,42,37,37,32,27,98,68,37,0.00,40.00,11,5,22,0.00
2014-10-8,49,40,35,29,27,24,74,59,39,0.00,40.00,10,6,21,0.00
2014-10-9,49,36,27,34,30,25,97,79,54,0.00,40.00,6,3,14,0.00
2014-10-10,49,38,24,36,29,23,96,71,49,0.00,40.00,7,3,14,0.00
2014-10-11,57,40,26,32,29,25,95,67,38,0.00,40.00,6,3,12,0.00
2014-10-12,61,48,37,37,32,28,79,58,32,0.00,40.00,10,5,21,0.00
2014-10-13,52,49,46,49,46,37,98,90,63,0.00,40.00,7,3,13,0.07
2014-10-14,52,46,39,46,43,37,98,89,69,0.00,40.00,10,7,22,0.23
2014-10-15,60,46,34,42,39,33,98,78,46,0.00,40.00,9,5,18,0.01
2014-10-16,66,46,30,47,39,29,98,79,45,0.00,40.00,5,2,10,0.01
2014-10-17,46,44,40,45,42,39,98,94,85,0.00,40.00,12,6,22,0.18
2014-10-18,48,37,29,39,32,28,97,83,49,0.00,40.00,9,4,18,0.05
2014-10-19,56,41,27,43,36,26,97,81,60,0.00,40.00,10,4,20,0.01
2014-10-20,50,47,43,43,40,38,87,79,66,0.00,40.00,6,5,16,0.00
2014-10-21,49,40,30,38,34,29,96,81,60,0.00,40.00,5,3,11,0.00
2014-10-22,58,43,30,35,31,26,97,68,29,0.00,40.00,7,4,15,0.00
2014-10-23,49,46,44,47,43,35,98,91,61,0.00,40.00,5,4,15,0.03
2014-10-24,64,53,46,52,48,45,98,86,53,0.00,40.00,7,5,16,0.01
2014-10-25,59,51,45,51,32,19,98,53,22,0.00,40.00,12,7,26,0.00
2014-10-26,62,45,27,30,26,24,89,51,25,0.00,40.00,4,2,9,0.00
2014-10-27,65,52,46,42,37,28,79,57,41,0.00,40.00,6,3,12,0.00
2014-10-28,45,41,34,42,38,33,96,91,81,0.00,40.00,8,6,18,0.17
2014-10-29,42,37,33,34,32,31,97,84,71,0.00,40.00,9,5,18,0.11
2014-10-30,39,36,29,33,32,28,97,84,72,0.00,40.00,11,5,26,0.01
2014-10-31,32,26,15,27,22,13,97,84,60,0.00,40.00,11,6,28,0.05
2014-11-1,41,25,9,22,15,6,89,68,39,0.00,40.00,5,2,11,0.01
2014-11-2,51,39,28,23,22,19,75,52,33,0.00,40.00,8,4,18,0.00
2014-11-3,49,42,33,44,32,21,98,69,50,0.00,40.00,6,3,12,0.06
2014-11-4,45,39,36,44,33,26,98,79,64,0.00,40.00,9,6,21,0.07
2014-11-5,38,35,31,32,27,23,97,74,60,0.00,40.00,6,4,17,0.01
2014-11-6,38,34,31,32,28,26,98,81,65,0.00,40.00,6,4,16,0.08
2014-11-7,34,31,27,32,29,26,98,93,76,0.00,40.00,7,4,18,0.04
2014-11-8,36,32,29,33,22,12,98,70,42,0.00,40.00,12,7,24,0.19
2014-11-9,34,27,14,30,17,4,96,71,29,0.00,40.00,9,4,19,0.06
2014-11-10,28,24,18,27,21,15,95,90,80,0.00,40.00,9,5,19,0.02
2014-11-11,29,24,20,28,22,18,96,93,87,0.00,40.00,12,8,26,0.00
2014-11-12,25,20,13,21,17,11,93,89,85,0.00,40.00,7,4,12,0.00
2014-11-13,24,17,10,19,14,7,89,87,82,0.00,40.00,8,4,15,0.00
2014-11-18,13,9,6,5,2,-1,82,72,59,0.00,40.00,8,6,19,0.00
2014-11-19,20,14,8,11,7,4,85,77,65,0.00,40.00,11,4,22,0.00
2014-11-20,12,6,-9,8,-1,-15,83,72,59,0.00,40.00,8,5,18,0.00
2014-11-21,26,12,-13,19,1,-19,78,62,35,0.00,40.00,11,6,22,0.02
2014-11-22,34,31,27,33,29,21,97,91,77,0.00,40.00,11,6,23,0.08
2014-11-23,46,41,34,46,41,33,99,99,97,0.00,40.00,6,3,14,0.34
2014-11-24,36,27,19,36,26,16,99,94,88,0.00,40.00,12,8,24,0.11
2014-11-25,21,15,6,16,11,3,89,84,71,0.00,40.00,8,4,18,0.01
2014-11-26,23,18,12,19,14,8,90,86,81,0.00,40.00,7,4,15,0.01
2014-11-27,12,2,-9,6,-4,-15,83,74,58,0.00,40.00,6,3,14,0.00
2014-11-28,17,9,-3,14,5,-8,87,82,76,0.00,40.00,4,3,9,0.00
2014-11-29,33,26,17,31,24,14,98,92,88,0.00,40.00,7,4,13,0.06
2014-11-30,29,12,0,28,5,-7,96,76,60,0.00,40.00,9,6,18,0.02
2014-12-1,8,-1,-9,-6,-12,-15,74,62,40,0.00,40.00,8,4,19,0.00
2014-12-2,17,10,-3,13,3,-13,86,72,59,0.00,40.00,8,6,18,0.00
2014-12-3,20,13,7,10,4,0,88,70,45,0.00,40.00,9,5,18,0.00
2014-12-4,29,12,-8,8,0,-14,81,60,33,0.00,40.00,5,3,16,0.00
2014-12-5,29,23,12,24,19,9,93,83,64,0.00,40.00,5,3,12,0.00
2014-12-6,36,20,8,20,13,4,90,74,42,0.00,40.00,4,2,9,0.06
2014-12-7,32,28,22,23,19,13,85,69,57,0.00,40.00,7,5,19,0.02
2014-12-8,32,28,24,31,26,22,97,93,86,0.00,40.00,7,5,14,0.00
2014-12-9,27,23,19,26,21,17,96,92,86,0.00,40.00,9,5,17,0.00
2014-12-10,22,18,17,20,16,15,94,88,87,0.00,40.00,4,3,9,0.00
2014-12-11,23,20,16,22,18,14,95,92,91,0.00,40.00,6,5,12,0.00
2014-12-12,31,28,23,30,27,22,98,97,95,0.00,40.00,8,5,15,0.02
2014-12-13,40,36,30,40,36,29,99,99,98,0.00,40.00,9,6,16,0.08
2014-12-14,43,40,37,43,40,37,100,99,99,0.00,40.00,5,1,9,0.02
2014-12-15,44,41,34,44,41,34,100,100,100,0.00,40.00,7,2,14,0.43
2014-12-16,32,24,17,32,22,14,100,92,87,0.00,40.00,10,8,23,0.28
2014-12-17,21,18,13,18,14,10,93,86,75,0.00,40.00,7,5,14,0.00
2014-12-18,24,20,16,19,17,14,94,87,78,0.00,40.00,6,3,12,0.00
2014-12-19,23,21,19,21,19,17,95,92,88,0.00,40.00,7,3,10,0.00
2014-12-20,30,25,22,27,23,20,95,92,85,0.00,40.00,5,3,13,0.00
2014-12-21,33,30,28,33,29,25,100,95,89,0.00,40.00,8,4,19,0.00
2014-12-22,33,33,32,33,32,30,100,98,93,0.00,40.00,6,4,15,0.24
2014-12-23,33,31,30,32,31,30,99,98,96,0.00,40.00,7,5,15,0.07
2014-12-24,33,31,30,31,30,29,99,98,93,0.00,40.00,5,4,12,0.02
2014-12-25,31,29,28,29,28,27,99,94,88,0.00,40.00,8,5,16,0.01
2014-12-26,31,28,27,29,28,26,99,96,92,0.00,40.00,5,3,12,0.00
2014-12-27,27,22,12,26,20,9,97,92,85,0.00,40.00,8,4,15,0.00
2014-12-28,18,9,-10,13,4,-15,89,80,62,0.00,40.00,6,3,13,0.00
2014-12-29,7,-3,-14,-3,-10,-20,80,73,61,0.00,40.00,6,3,12,0.00
2014-12-30,2,-9,-16,-8,-16,-23,75,71,61,0.00,40.00,7,3,13,0.00
2014-12-31,8,-2,-13,-1,-10,-19,78,71,60,0.00,40.00,11,7,20,0.00
2015-1-1,23,13,6,17,6,-6,87,74,56,0.00,40.00,8,5,18,0.00
2015-1-2,19,7,-8,13,-2,-14,77,66,52,0.00,40.00,6,3,11,0.00